Time;durP1;ratioP1;P1;durP2;ratioP2;P2;SDS_P1;SDS_P2;PMS_P1;PMS_P2;Temp;Humidity;BMP_temperature;BMP_pressure;BME280_temperature;BME280_humidity;BME280_pressure;Samples;Min_cycle;Max_cycle;Signal;HPM_P1;HPM_P2
2020/12/02 00:02:11;;;;;;;12.95;4.60;;;6.80;93.10;;;;;;5040255;28;20142;-80
2020/12/02 00:04:37;;;;;;;12.45;4.13;;;6.80;93.00;;;;;;5009899;28;20066;-82
2020/12/02 00:07:05;;;;;;;14.30;4.10;;;6.80;92.90;;;;;;4993307;28;20030;-79
2020/12/02 00:09:31;;;;;;;11.65;3.72;;;6.80;92.80;;;;;;4989578;28;20048;-79
2020/12/02 00:11:56;;;;;;;11.75;4.20;;;6.80;92.90;;;;;;4999650;28;20046;-80
2020/12/02 00:14:28;;;;;;;14.40;3.88;;;6.80;92.80;;;;;;4989679;28;20029;-79
2020/12/02 00:16:56;;;;;;;9.75;3.80;;;6.80;92.90;;;;;;4991725;28;20045;-82
2020/12/02 00:19:22;;;;;;;15.43;4.30;;;6.80;92.90;;;;;;4992398;28;20042;-79
2020/12/02 00:22:22;;;;;;;8.95;3.67;;;6.90;92.90;;;;;;4991269;28;20042;-79
2020/12/02 00:24:49;;;;;;;8.75;3.70;;;6.80;93.00;;;;;;5055854;27;20040;-79
2020/12/02 00:27:21;;;;;;;12.93;4.30;;;6.80;93.00;;;;;;5096164;28;20478;-80
2020/12/02 00:29:48;;;;;;;12.77;4.30;;;6.90;93.00;;;;;;5092176;28;21031;-81
2020/12/02 00:32:32;;;;;;;8.73;3.83;;;6.90;93.00;;;;;;5097481;27;20559;-80
2020/12/02 00:34:59;;;;;;;11.68;4.38;;;6.90;93.00;;;;;;5094169;27;20034;-82
2020/12/02 00:37:26;;;;;;;9.40;3.78;;;6.90;93.00;;;;;;5090950;28;20465;-79
2020/12/02 00:39:52;;;;;;;12.55;4.70;;;6.90;93.00;;;;;;5098231;28;20477;-79
2020/12/02 00:42:20;;;;;;;10.32;3.83;;;6.90;92.90;;;;;;5099054;27;20051;-80
2020/12/02 00:44:46;;;;;;;12.68;6.35;;;6.80;92.90;;;;;;5107693;27;20028;-79
2020/12/02 00:47:16;;;;;;;13.98;5.95;;;6.80;92.80;;;;;;5093963;27;20045;-80
2020/12/02 00:49:42;;;;;;;14.18;5.47;;;6.80;92.80;;;;;;5007765;28;20037;-79
2020/12/02 00:52:08;;;;;;;13.20;4.82;;;6.80;92.80;;;;;;4994934;28;20035;-81
2020/12/02 00:54:35;;;;;;;12.68;4.15;;;6.80;92.90;;;;;;4990524;28;20030;-81
2020/12/02 00:57:00;;;;;;;14.88;4.53;;;6.90;92.90;;;;;;4996033;28;20053;-81
2020/12/02 00:59:29;;;;;;;14.73;4.93;;;6.90;92.90;;;;;;4989809;28;20576;-82
2020/12/02 01:02:05;;;;;;;10.27;4.32;;;6.80;92.80;;;;;;4991366;28;20049;-80
2020/12/02 01:04:30;;;;;;;9.65;4.20;;;6.80;92.70;;;;;;5002521;28;20032;-79
2020/12/02 01:06:57;;;;;;;12.90;5.65;;;6.80;92.70;;;;;;4991205;28;20042;-79
2020/12/02 01:09:26;;;;;;;12.52;4.93;;;6.80;92.80;;;;;;4992339;28;20050;-79
2020/12/02 01:11:56;;;;;;;13.07;5.75;;;6.80;92.80;;;;;;4999680;28;20556;-79
2020/12/02 01:14:25;;;;;;;16.45;6.35;;;6.80;92.90;;;;;;5010670;27;20038;-80
2020/12/02 01:16:52;;;;;;;16.50;6.43;;;6.80;93.00;;;;;;5010856;28;20034;-80
2020/12/02 01:19:25;;;;;;;11.15;5.45;;;6.80;93.00;;;;;;4990195;28;20030;-80
2020/12/02 01:22:10;;;;;;;10.80;5.63;;;6.80;93.10;;;;;;4999334;28;20067;-80
2020/12/02 01:24:42;;;;;;;14.77;6.22;;;6.80;93.10;;;;;;5000524;28;20472;-80
2020/12/02 01:27:18;;;;;;;15.02;5.50;;;6.90;93.10;;;;;;5021521;28;20038;-79
2020/12/02 01:29:45;;;;;;;13.77;5.60;;;6.80;93.00;;;;;;5047322;28;20527;-79
2020/12/02 01:32:14;;;;;;;13.30;5.53;;;6.80;92.90;;;;;;4993312;28;20034;-80
2020/12/02 01:34:40;;;;;;;10.45;5.22;;;6.70;92.90;;;;;;4993869;28;20042;-79
2020/12/02 01:37:17;;;;;;;13.60;5.65;;;6.60;92.90;;;;;;4995895;28;20106;-83
2020/12/02 01:40:01;;;;;;;11.70;5.32;;;6.60;93.00;;;;;;5029844;28;20040;-79
2020/12/02 01:42:28;;;;;;;11.90;5.28;;;6.60;93.00;;;;;;4994023;28;20053;-79
2020/12/02 01:44:54;;;;;;;9.13;4.60;;;6.60;93.00;;;;;;4998469;28;20035;-81
2020/12/02 01:47:50;;;;;;;12.20;5.18;;;6.50;93.00;;;;;;4993217;28;20043;-81
2020/12/02 01:50:43;;;;;;;12.35;5.18;;;6.40;93.00;;;;;;4990437;28;20354;-79
2020/12/02 01:53:09;;;;;;;12.80;5.47;;;6.30;93.00;;;;;;4994625;28;20537;-79
2020/12/02 01:55:42;;;;;;;12.52;5.90;;;6.30;93.10;;;;;;4996403;28;20156;-80
2020/12/02 01:58:17;;;;;;;10.82;5.38;;;6.20;93.10;;;;;;4998637;28;20037;-82
2020/12/02 02:00:51;;;;;;;12.10;5.43;;;6.20;93.20;;;;;;4997747;28;20062;-79
2020/12/02 02:03:19;;;;;;;13.18;5.63;;;6.10;93.30;;;;;;4994840;28;20072;-79
2020/12/02 02:06:03;;;;;;;14.45;5.63;;;6.00;93.30;;;;;;4994676;28;20026;-79
2020/12/02 02:08:32;;;;;;;15.52;5.70;;;6.00;93.40;;;;;;4993129;28;20073;-80
2020/12/02 02:11:00;;;;;;;13.15;5.95;;;6.00;93.50;;;;;;4998217;28;20090;-84
2020/12/02 02:13:32;;;;;;;12.93;6.00;;;5.90;93.40;;;;;;4993755;28;20401;-80
2020/12/02 02:16:04;;;;;;;16.17;6.30;;;5.80;93.40;;;;;;4988291;28;20134;-80
2020/12/02 02:18:31;;;;;;;10.52;5.80;;;5.80;93.50;;;;;;5000469;28;20125;-79
2020/12/02 02:21:08;;;;;;;12.07;5.70;;;5.80;93.60;;;;;;4994766;28;20053;-81
2020/12/02 02:23:34;;;;;;;11.68;5.68;;;5.70;93.60;;;;;;4990450;28;20388;-81
2020/12/02 02:26:15;;;;;;;10.05;6.18;;;5.70;93.60;;;;;;5010205;28;20054;-81
2020/12/02 02:29:23;;;;;;;11.65;6.85;;;5.60;93.60;;;;;;5009730;27;20487;-80
2020/12/02 02:32:01;;;;;;;11.40;6.45;;;5.60;93.70;;;;;;5008194;27;20038;-79
2020/12/02 02:34:30;;;;;;;12.38;6.90;;;5.60;93.70;;;;;;5028282;28;20525;-79
2020/12/02 02:36:57;;;;;;;14.88;7.38;;;5.60;93.80;;;;;;5013340;28;20032;-79
2020/12/02 02:39:23;;;;;;;12.70;6.40;;;5.60;93.90;;;;;;4999495;28;20043;-79
2020/12/02 02:41:56;;;;;;;14.30;7.03;;;5.60;93.90;;;;;;4980754;28;20084;-79
2020/12/02 02:44:22;;;;;;;11.13;6.57;;;5.60;94.00;;;;;;4977553;28;20052;-80
2020/12/02 02:46:49;;;;;;;12.90;7.00;;;5.60;94.00;;;;;;4976175;28;20388;-82
2020/12/02 02:49:15;;;;;;;11.57;6.72;;;5.60;94.00;;;;;;4974003;28;20406;-82
2020/12/02 02:51:41;;;;;;;12.68;7.30;;;5.60;94.00;;;;;;4978765;28;20038;-81
2020/12/02 02:54:07;;;;;;;11.90;6.75;;;5.70;94.00;;;;;;4973940;28;20032;-79
2020/12/02 02:56:33;;;;;;;13.23;6.95;;;5.70;93.90;;;;;;4979657;28;20117;-80
2020/12/02 02:58:58;;;;;;;9.80;6.07;;;5.70;93.90;;;;;;4976970;28;20537;-79
2020/12/02 03:01:24;;;;;;;12.10;6.60;;;5.70;93.90;;;;;;4978623;28;20034;-79
2020/12/02 03:03:50;;;;;;;10.73;6.05;;;5.70;93.70;;;;;;4969190;28;20553;-79
2020/12/02 03:06:15;;;;;;;12.18;6.57;;;5.70;93.70;;;;;;4971897;28;20272;-80
2020/12/02 03:08:41;;;;;;;11.27;6.20;;;5.70;93.60;;;;;;4977397;28;20173;-79
2020/12/02 03:11:11;;;;;;;12.25;6.88;;;5.70;93.60;;;;;;4977612;28;20034;-80
2020/12/02 03:13:41;;;;;;;11.18;7.05;;;5.70;93.60;;;;;;4980246;28;20461;-79
2020/12/02 03:16:45;;;;;;;16.17;7.90;;;5.70;93.60;;;;;;4973813;28;20049;-79
2020/12/02 03:19:22;;;;;;;11.00;6.63;;;5.70;93.60;;;;;;4971832;28;20058;-81
2020/12/02 03:21:49;;;;;;;12.88;7.10;;;5.70;93.60;;;;;;4979922;28;20096;-79
2020/12/02 03:24:15;;;;;;;15.20;8.18;;;5.70;93.60;;;;;;5035803;28;20090;-79
2020/12/02 03:26:41;;;;;;;12.02;7.78;;;5.80;93.70;;;;;;5052472;28;20103;-79
2020/12/02 03:29:08;;;;;;;10.07;7.28;;;5.70;93.60;;;;;;4974202;28;20022;-80
2020/12/02 03:31:35;;;;;;;13.57;7.97;;;5.70;93.50;;;;;;4978227;28;20414;-79
2020/12/02 03:34:01;;;;;;;12.63;7.85;;;5.70;93.50;;;;;;4978070;28;20054;-78
2020/12/02 03:36:26;;;;;;;13.07;8.80;;;5.70;93.50;;;;;;4976890;28;20057;-83
2020/12/02 03:38:53;;;;;;;13.98;8.35;;;5.70;93.50;;;;;;4971726;28;20034;-79
2020/12/02 03:41:20;;;;;;;13.88;9.15;;;5.70;93.50;;;;;;4970589;28;20074;-79
2020/12/02 03:43:46;;;;;;;16.88;11.35;;;5.70;93.50;;;;;;4979211;28;20050;-80
2020/12/02 03:46:12;;;;;;;16.85;11.07;;;5.80;93.40;;;;;;4973005;28;20035;-81
2020/12/02 03:48:38;;;;;;;17.70;12.05;;;5.80;93.40;;;;;;4972447;28;20126;-81
2020/12/02 03:51:05;;;;;;;18.48;13.15;;;5.80;93.30;;;;;;4982899;28;20114;-80
2020/12/02 03:53:30;;;;;;;22.08;13.18;;;5.90;93.20;;;;;;4988173;28;20458;-80
2020/12/02 03:55:56;;;;;;;22.15;16.05;;;5.90;93.00;;;;;;5014048;28;20078;-80
2020/12/02 03:58:22;;;;;;;24.92;16.25;;;5.90;93.10;;;;;;4987045;28;20125;-80
2020/12/02 04:00:47;;;;;;;21.45;16.17;;;6.00;93.00;;;;;;4972889;28;20547;-82
2020/12/02 04:03:13;;;;;;;24.92;16.83;;;6.00;93.00;;;;;;4981358;28;20389;-82
2020/12/02 04:05:39;;;;;;;26.17;17.83;;;5.90;93.00;;;;;;4975691;28;20107;-80
2020/12/02 04:08:05;;;;;;;27.38;17.65;;;6.00;93.00;;;;;;4975638;28;20043;-81
2020/12/02 04:10:32;;;;;;;27.60;18.25;;;6.00;92.90;;;;;;4972433;28;20042;-80
2020/12/02 04:12:58;;;;;;;30.13;18.88;;;6.00;92.80;;;;;;4979860;28;20114;-80
2020/12/02 04:15:25;;;;;;;28.95;19.23;;;6.10;92.70;;;;;;4970332;28;20191;-80
2020/12/02 04:17:51;;;;;;;31.52;19.20;;;6.10;92.50;;;;;;4972847;28;20043;-80
2020/12/02 04:20:20;;;;;;;27.60;19.83;;;6.10;92.40;;;;;;4976449;28;20095;-80
2020/12/02 04:22:47;;;;;;;29.33;19.50;;;6.00;92.30;;;;;;4971096;28;20038;-81
2020/12/02 04:25:13;;;;;;;27.73;19.27;;;6.00;92.20;;;;;;4973077;28;20397;-80
2020/12/02 04:27:39;;;;;;;27.90;18.88;;;6.00;92.20;;;;;;4977935;28;20042;-84
2020/12/02 04:30:06;;;;;;;28.08;19.15;;;6.00;92.20;;;;;;4978907;28;20039;-85
2020/12/02 04:32:31;;;;;;;25.75;19.50;;;6.00;92.20;;;;;;4973657;28;21062;-79
2020/12/02 04:35:01;;;;;;;26.25;18.33;;;6.00;92.20;;;;;;4976071;28;20043;-80
2020/12/02 04:37:29;;;;;;;27.67;18.67;;;6.00;92.30;;;;;;4974666;28;20106;-80
2020/12/02 04:39:55;;;;;;;31.45;19.92;;;6.00;92.40;;;;;;4972306;28;20045;-83
2020/12/02 04:42:26;;;;;;;32.58;20.48;;;6.10;92.50;;;;;;4972428;28;20390;-81
2020/12/02 04:44:52;;;;;;;27.13;18.85;;;6.00;92.50;;;;;;4978876;28;20143;-80
2020/12/02 04:47:18;;;;;;;29.58;19.88;;;6.10;92.50;;;;;;4971685;28;20126;-80
2020/12/02 04:49:46;;;;;;;32.30;21.77;;;6.10;92.40;;;;;;4973630;28;20096;-80
2020/12/02 04:52:14;;;;;;;29.20;20.85;;;6.00;92.30;;;;;;4975278;28;20043;-81
2020/12/02 04:54:41;;;;;;;30.00;20.98;;;6.00;92.30;;;;;;4973265;28;20046;-84
2020/12/02 04:57:09;;;;;;;27.25;19.50;;;6.00;92.30;;;;;;4979896;28;20125;-79
2020/12/02 04:59:43;;;;;;;28.50;20.65;;;6.10;92.40;;;;;;4968206;28;20038;-80
2020/12/02 05:02:23;;;;;;;30.13;20.30;;;6.10;92.40;;;;;;4977149;28;20126;-81
2020/12/02 05:05:00;;;;;;;26.30;19.85;;;6.10;92.40;;;;;;4979636;28;20042;-82
2020/12/02 05:07:28;;;;;;;28.17;18.92;;;6.10;92.30;;;;;;4972675;28;20677;-84
2020/12/02 05:09:56;;;;;;;26.50;18.48;;;6.10;92.30;;;;;;4984299;28;20478;-80
2020/12/02 05:12:25;;;;;;;28.23;19.08;;;6.10;92.40;;;;;;4979591;28;20096;-80
2020/12/02 05:14:51;;;;;;;25.67;18.83;;;6.10;92.40;;;;;;4987557;28;20492;-80
2020/12/02 05:17:16;;;;;;;25.13;18.73;;;6.10;92.40;;;;;;4980009;28;20039;-81
2020/12/02 05:19:43;;;;;;;27.85;19.00;;;6.10;92.40;;;;;;4977564;28;20382;-81
2020/12/02 05:22:16;;;;;;;25.58;18.55;;;6.10;92.50;;;;;;4973024;28;20040;-81
2020/12/02 05:24:45;;;;;;;32.05;19.67;;;6.00;92.40;;;;;;4989460;28;20081;-82
2020/12/02 05:27:15;;;;;;;28.90;20.00;;;5.90;92.40;;;;;;4975972;28;20118;-81
2020/12/02 05:30:16;;;;;;;28.73;19.50;;;5.80;92.50;;;;;;4973422;28;20042;-81
2020/12/02 05:32:59;;;;;;;27.48;19.35;;;5.80;92.60;;;;;;4978607;28;20466;-80
2020/12/02 05:35:27;;;;;;;25.88;19.92;;;5.70;92.60;;;;;;4973082;28;20481;-80
2020/12/02 05:37:54;;;;;;;28.45;20.77;;;5.70;92.60;;;;;;4972008;28;20031;-81
2020/12/02 05:40:21;;;;;;;33.05;20.65;;;5.60;92.60;;;;;;4976361;28;20505;-81
2020/12/02 05:42:53;;;;;;;29.15;19.95;;;5.70;92.40;;;;;;4974655;28;20126;-79
2020/12/02 05:45:44;;;;;;;28.80;20.67;;;5.60;92.30;;;;;;4969926;28;20034;-79
2020/12/02 05:48:35;;;;;;;31.35;19.85;;;5.50;92.30;;;;;;4979119;28;20055;-81
2020/12/02 05:51:01;;;;;;;30.38;21.38;;;5.50;92.50;;;;;;4974050;28;20054;-80
2020/12/02 05:53:29;;;;;;;30.38;21.67;;;5.40;92.60;;;;;;4972351;28;20038;-81
2020/12/02 05:55:55;;;;;;;31.75;20.00;;;5.40;92.60;;;;;;4970658;28;20307;-79
2020/12/02 05:58:27;;;;;;;30.17;20.90;;;5.40;92.70;;;;;;4977191;28;20053;-81
2020/12/02 06:00:53;;;;;;;28.92;20.20;;;5.30;92.70;;;;;;4976045;28;20104;-83
2020/12/02 06:03:21;;;;;;;30.30;20.58;;;5.30;92.70;;;;;;4985308;28;20046;-81
2020/12/02 06:05:47;;;;;;;29.52;21.35;;;5.20;92.80;;;;;;4982372;28;20539;-83
2020/12/02 06:08:45;;;;;;;26.17;18.95;;;5.10;92.90;;;;;;4989405;28;20517;-83
2020/12/02 06:11:26;;;;;;;27.02;19.30;;;5.10;93.00;;;;;;4978410;28;20043;-81
2020/12/02 06:13:53;;;;;;;28.80;20.52;;;5.00;92.90;;;;;;4975327;28;20046;-82
2020/12/02 06:16:39;;;;;;;27.48;20.45;;;4.90;92.90;;;;;;4969545;28;20043;-82
2020/12/02 06:19:41;;;;;;;27.63;20.45;;;4.90;93.00;;;;;;4969904;28;20360;-82
2020/12/02 06:22:07;;;;;;;27.27;19.45;;;4.80;93.00;;;;;;4973893;28;20070;-84
2020/12/02 06:24:44;;;;;;;29.08;20.98;;;4.70;93.00;;;;;;4977122;28;20554;-80
2020/12/02 06:27:15;;;;;;;29.98;20.77;;;4.60;93.00;;;;;;4987197;28;20042;-80
2020/12/02 06:29:45;;;;;;;26.67;18.63;;;4.60;93.00;;;;;;4973990;28;20034;-80
2020/12/02 06:32:15;;;;;;;25.63;19.35;;;4.60;93.10;;;;;;4972937;28;20115;-81
2020/12/02 06:34:42;;;;;;;28.85;20.27;;;4.50;93.10;;;;;;4974903;28;20603;-79
2020/12/02 06:37:15;;;;;;;26.98;19.40;;;4.50;93.10;;;;;;4975171;28;20031;-79
2020/12/02 06:39:54;;;;;;;35.63;22.08;;;4.50;93.00;;;;;;4974819;28;20409;-79
2020/12/02 06:42:37;;;;;;;31.90;22.40;;;4.40;93.00;;;;;;4970241;28;20043;-82
2020/12/02 06:45:09;;;;;;;29.90;21.23;;;4.30;93.00;;;;;;4971386;28;20042;-79
2020/12/02 06:47:46;;;;;;;31.92;22.30;;;4.30;93.00;;;;;;4973219;28;20043;-79
2020/12/02 06:50:11;;;;;;;30.67;21.05;;;4.20;93.10;;;;;;4971779;28;20042;-79
2020/12/02 06:52:38;;;;;;;29.48;22.02;;;4.20;93.20;;;;;;4969901;28;20023;-80
2020/12/02 06:55:10;;;;;;;33.45;21.92;;;4.30;93.30;;;;;;4969976;28;20047;-79
2020/12/02 06:57:36;;;;;;;33.38;21.90;;;4.20;93.20;;;;;;4968272;28;20853;-80
2020/12/02 07:00:06;;;;;;;32.30;23.02;;;4.20;93.30;;;;;;4983485;28;20046;-79
2020/12/02 07:02:53;;;;;;;34.75;23.38;;;4.20;93.40;;;;;;4986756;28;20042;-80
2020/12/02 07:05:39;;;;;;;32.55;21.17;;;4.20;93.50;;;;;;4973066;28;20132;-80
2020/12/02 07:08:25;;;;;;;38.72;25.77;;;4.20;93.50;;;;;;4972606;28;20137;-79
2020/12/02 07:11:17;;;;;;;32.08;21.48;;;4.20;93.50;;;;;;4976549;28;20474;-80
2020/12/02 07:13:48;;;;;;;36.65;23.83;;;4.20;93.60;;;;;;4985104;28;20508;-80
2020/12/02 07:16:32;;;;;;;41.20;27.83;;;4.10;93.60;;;;;;5010840;28;20477;-80
2020/12/02 07:19:05;;;;;;;37.10;25.60;;;4.10;93.60;;;;;;4993233;28;20045;-80
2020/12/02 07:21:36;;;;;;;36.65;25.90;;;4.10;93.70;;;;;;4996286;28;20180;-80
2020/12/02 07:24:03;;;;;;;34.33;25.13;;;4.10;93.80;;;;;;4993273;28;20054;-80
2020/12/02 07:26:29;;;;;;;36.92;24.75;;;4.10;93.90;;;;;;4994113;28;20038;-81
2020/12/02 07:29:16;;;;;;;36.83;25.25;;;4.10;94.00;;;;;;4995318;28;20063;-81
2020/12/02 07:31:42;;;;;;;36.97;23.63;;;4.10;94.00;;;;;;4986799;28;20117;-80
2020/12/02 07:34:37;;;;;;;33.75;23.45;;;4.20;94.10;;;;;;5020211;28;20471;-82
2020/12/02 07:37:06;;;;;;;41.45;24.42;;;4.30;94.20;;;;;;4985606;28;20050;-77
2020/12/02 07:39:32;;;;;;;35.10;25.13;;;4.30;94.20;;;;;;4992239;28;20046;-78
2020/12/02 07:42:01;;;;;;;35.72;25.05;;;4.40;94.20;;;;;;4997230;28;20557;-81
2020/12/02 07:44:28;;;;;;;36.83;24.33;;;4.40;94.20;;;;;;4994310;28;20042;-80
2020/12/02 07:46:59;;;;;;;35.70;23.92;;;4.50;94.10;;;;;;4989680;28;20053;-81
2020/12/02 07:49:27;;;;;;;36.55;24.05;;;4.60;94.10;;;;;;4984881;28;20118;-81
2020/12/02 07:52:09;;;;;;;32.60;22.55;;;4.60;94.00;;;;;;4989731;28;20472;-81
2020/12/02 07:54:35;;;;;;;33.25;23.65;;;4.60;93.80;;;;;;4992513;28;20026;-79
2020/12/02 07:57:02;;;;;;;32.97;23.90;;;4.60;93.80;;;;;;4989088;28;20038;-81
2020/12/02 07:59:32;;;;;;;31.55;22.83;;;4.60;93.70;;;;;;4990895;28;20034;-79
2020/12/02 08:01:57;;;;;;;31.23;22.42;;;4.60;93.70;;;;;;4993392;28;20142;-79
2020/12/02 08:04:23;;;;;;;34.20;22.58;;;4.70;93.60;;;;;;5000681;28;20058;-83
2020/12/02 08:06:56;;;;;;;32.22;22.52;;;4.70;93.60;;;;;;4994713;28;20117;-80
2020/12/02 08:09:22;;;;;;;30.40;21.23;;;4.80;93.60;;;;;;4988013;28;20049;-81
2020/12/02 08:11:56;;;;;;;30.23;20.60;;;4.80;93.60;;;;;;4990401;28;20042;-81
2020/12/02 08:14:29;;;;;;;29.80;22.33;;;4.80;93.50;;;;;;4987403;28;20159;-82
2020/12/02 08:17:14;;;;;;;29.20;21.85;;;4.90;93.50;;;;;;4990324;28;20482;-78
2020/12/02 08:19:42;;;;;;;30.35;21.75;;;5.00;93.40;;;;;;4990904;28;20373;-79
2020/12/02 08:22:20;;;;;;;28.13;20.58;;;5.00;93.40;;;;;;4989371;28;20137;-80
2020/12/02 08:24:46;;;;;;;29.67;20.33;;;5.10;93.30;;;;;;4986588;28;20580;-80
2020/12/02 08:27:16;;;;;;;28.33;21.67;;;5.10;93.10;;;;;;4988546;28;20113;-78
2020/12/02 08:29:49;;;;;;;28.70;20.42;;;5.10;93.00;;;;;;4994990;28;20105;-80
2020/12/02 08:32:32;;;;;;;28.15;21.00;;;5.20;92.90;;;;;;4992282;28;20202;-81
2020/12/02 08:34:58;;;;;;;30.40;22.92;;;5.20;92.90;;;;;;4997405;28;20116;-80
2020/12/02 08:37:34;;;;;;;29.30;22.52;;;5.40;92.80;;;;;;4994634;28;20046;-80
2020/12/02 08:40:22;;;;;;;32.90;23.23;;;5.50;92.80;;;;;;4999059;28;20244;-83
2020/12/02 08:42:48;;;;;;;33.35;23.38;;;5.60;92.80;;;;;;5002468;28;20387;-81
2020/12/02 08:45:20;;;;;;;30.17;23.33;;;5.70;92.70;;;;;;4994084;28;20124;-78
2020/12/02 08:47:57;;;;;;;37.58;25.60;;;5.90;92.50;;;;;;4991634;28;20034;-80
2020/12/02 08:50:28;;;;;;;35.50;26.17;;;6.00;92.30;;;;;;5001807;28;20050;-72
2020/12/02 08:52:56;;;;;;;40.38;28.35;;;6.10;92.30;;;;;;4996741;28;20121;-74
2020/12/02 08:55:22;;;;;;;33.80;25.90;;;6.10;92.00;;;;;;4997779;28;20520;-80
2020/12/02 08:57:48;;;;;;;35.67;25.77;;;6.20;91.90;;;;;;4987857;28;20045;-74
2020/12/02 09:00:16;;;;;;;40.45;27.63;;;6.30;92.00;;;;;;5021945;28;20035;-74
2020/12/02 09:02:42;;;;;;;37.72;26.15;;;6.40;91.90;;;;;;5029927;28;20494;-75
2020/12/02 09:05:08;;;;;;;41.88;26.63;;;6.30;91.60;;;;;;5024461;28;20085;-74
2020/12/02 09:07:33;;;;;;;43.63;26.50;;;6.30;91.70;;;;;;5012743;28;20121;-72
2020/12/02 09:09:59;;;;;;;40.35;27.85;;;6.30;91.60;;;;;;5017319;28;20117;-76
2020/12/02 09:12:25;;;;;;;42.80;28.85;;;6.30;91.60;;;;;;5013246;28;20039;-76
2020/12/02 09:14:50;;;;;;;47.85;30.77;;;6.20;91.70;;;;;;5018668;28;20046;-78
2020/12/02 09:17:16;;;;;;;50.35;30.60;;;6.20;91.80;;;;;;5057831;28;20113;-73
2020/12/02 09:19:42;;;;;;;50.10;32.58;;;6.20;91.80;;;;;;5025777;28;20503;-73
2020/12/02 09:22:07;;;;;;;56.45;34.95;;;6.30;91.90;;;;;;4983206;28;20035;-73
2020/12/02 09:24:33;;;;;;;57.75;34.72;;;6.30;91.90;;;;;;4999851;28;20125;-72
2020/12/02 09:26:59;;;;;;;62.55;37.00;;;6.40;91.80;;;;;;5001914;28;20164;-72
2020/12/02 09:29:24;;;;;;;56.80;35.45;;;6.40;91.80;;;;;;5023106;28;20053;-72
2020/12/02 09:31:50;;;;;;;68.25;38.08;;;6.40;91.80;;;;;;5051776;28;20052;-73
2020/12/02 09:34:17;;;;;;;65.10;38.22;;;6.30;91.60;;;;;;5005257;28;20034;-72
2020/12/02 09:36:45;;;;;;;66.65;40.17;;;6.30;91.60;;;;;;4990874;28;20026;-72
2020/12/02 09:39:12;;;;;;;69.97;42.70;;;6.30;91.80;;;;;;4989622;28;20045;-77
2020/12/02 09:42:06;;;;;;;70.03;42.95;;;6.30;91.90;;;;;;4989710;28;20054;-76
2020/12/02 09:44:46;;;;;;;76.32;43.10;;;6.30;92.10;;;;;;4987062;28;20117;-73
2020/12/02 09:47:16;;;;;;;82.32;46.25;;;6.30;92.00;;;;;;4988484;28;20226;-72
2020/12/02 09:49:44;;;;;;;75.78;43.25;;;6.40;92.10;;;;;;4996684;28;20073;-73
2020/12/02 09:52:23;;;;;;;76.78;43.72;;;6.40;92.00;;;;;;4990962;28;20077;-73
2020/12/02 09:54:49;;;;;;;72.53;41.30;;;6.50;92.00;;;;;;5024760;28;20038;-74
2020/12/02 09:57:23;;;;;;;66.75;41.03;;;6.60;91.60;;;;;;5007843;28;20495;-72
2020/12/02 09:59:53;;;;;;;63.55;38.22;;;6.60;91.30;;;;;;5023131;28;20456;-72
2020/12/02 10:02:32;;;;;;;71.53;41.50;;;6.50;90.70;;;;;;5014142;28;20046;-81
2020/12/02 10:05:08;;;;;;;66.88;39.95;;;6.50;90.80;;;;;;5010156;28;20107;-77
2020/12/02 10:07:39;;;;;;;72.10;43.95;;;6.50;90.60;;;;;;5036340;28;20044;-77
2020/12/02 10:10:31;;;;;;;73.80;41.88;;;6.60;91.00;;;;;;4985981;28;20033;-74
2020/12/02 10:13:26;;;;;;;74.22;43.33;;;6.70;91.30;;;;;;5035287;28;20043;-77
2020/12/02 10:16:19;;;;;;;69.30;42.75;;;6.90;91.20;;;;;;5017443;28;20400;-71
2020/12/02 10:19:15;;;;;;;70.43;42.47;;;7.00;90.70;;;;;;5024695;28;20063;-71
2020/12/02 10:21:57;;;;;;;67.00;39.92;;;7.10;89.90;;;;;;4970381;28;20382;-71
2020/12/02 10:24:35;;;;;;;62.30;36.75;;;7.10;89.50;;;;;;4974758;28;20070;-74
2020/12/02 10:27:38;;;;;;;61.38;38.30;;;7.00;89.30;;;;;;4995649;28;20042;-74
2020/12/02 10:30:11;;;;;;;68.20;40.67;;;7.10;89.20;;;;;;4973719;28;20069;-75
2020/12/02 10:33:25;;;;;;;61.75;37.22;;;7.10;89.20;;;;;;4990519;28;20413;-72
2020/12/02 10:35:51;;;;;;;63.17;38.83;;;7.10;89.30;;;;;;5001061;28;20035;-75
2020/12/02 10:38:47;;;;;;;63.40;38.45;;;7.20;89.10;;;;;;5024643;28;20117;-71
2020/12/02 10:41:39;;;;;;;66.93;40.75;;;7.30;88.70;;;;;;4967319;28;20516;-75
2020/12/02 10:44:39;;;;;;;68.43;40.53;;;7.20;88.70;;;;;;4969756;28;20067;-74
2020/12/02 10:47:32;;;;;;;66.13;39.85;;;7.30;88.80;;;;;;4967330;28;20053;-78
2020/12/02 10:49:58;;;;;;;65.68;39.90;;;7.30;88.70;;;;;;4999069;28;20021;-74
2020/12/02 10:52:24;;;;;;;65.13;41.30;;;7.30;88.90;;;;;;4986774;28;20036;-73
2020/12/02 10:54:51;;;;;;;65.53;39.70;;;7.40;88.90;;;;;;5000317;28;20027;-73
2020/12/02 10:57:20;;;;;;;67.47;43.05;;;7.40;88.60;;;;;;4975198;28;20034;-73
2020/12/02 10:59:54;;;;;;;63.83;40.75;;;7.40;88.40;;;;;;4972740;28;20379;-74
2020/12/02 11:02:23;;;;;;;67.80;41.00;;;7.40;88.60;;;;;;4994490;28;20036;-76
2020/12/02 11:04:49;;;;;;;69.18;41.40;;;7.30;88.60;;;;;;5019354;28;20084;-77
2020/12/02 11:07:36;;;;;;;68.68;42.95;;;7.30;88.60;;;;;;5023876;28;20038;-74
2020/12/02 11:10:01;;;;;;;66.03;40.10;;;7.40;88.80;;;;;;4980449;28;20039;-73
2020/12/02 11:12:27;;;;;;;70.10;42.83;;;7.40;88.80;;;;;;4990091;28;20083;-73
2020/12/02 11:15:02;;;;;;;68.05;42.15;;;7.40;88.60;;;;;;5007335;28;20356;-73
2020/12/02 11:17:40;;;;;;;66.93;41.60;;;7.40;88.70;;;;;;4966925;28;20067;-73
2020/12/02 11:20:15;;;;;;;69.38;43.05;;;7.50;88.90;;;;;;4973912;28;20547;-73
2020/12/02 11:22:54;;;;;;;69.22;43.58;;;7.50;88.70;;;;;;4977801;28;20533;-72
2020/12/02 11:25:48;;;;;;;68.05;42.65;;;7.50;88.70;;;;;;4991565;28;20049;-78
2020/12/02 11:28:15;;;;;;;64.35;39.92;;;7.50;88.50;;;;;;4989735;28;20038;-73
2020/12/02 11:30:42;;;;;;;64.53;40.72;;;7.50;88.60;;;;;;4979294;28;20098;-78
2020/12/02 11:33:27;;;;;;;63.50;40.45;;;7.60;88.70;;;;;;4978843;28;20031;-73
2020/12/02 11:36:11;;;;;;;64.00;40.47;;;7.50;88.40;;;;;;4988670;28;20030;-76
2020/12/02 11:38:47;;;;;;;69.80;42.47;;;7.50;88.50;;;;;;4975174;28;20327;-72
2020/12/02 11:41:21;;;;;;;67.00;42.20;;;7.50;88.60;;;;;;4970535;28;20551;-73
2020/12/02 11:43:51;;;;;;;62.95;40.60;;;7.60;88.50;;;;;;4997312;28;20501;-74
2020/12/02 11:46:19;;;;;;;61.10;37.92;;;7.60;88.80;;;;;;4978403;28;20040;-72
2020/12/02 11:48:54;;;;;;;60.80;38.38;;;7.60;88.10;;;;;;4984227;28;20047;-72
2020/12/02 11:51:20;;;;;;;59.53;38.63;;;7.60;88.30;;;;;;4991441;28;20027;-72
2020/12/02 11:53:46;;;;;;;60.65;39.35;;;7.50;88.00;;;;;;4986651;28;20043;-71
2020/12/02 11:56:25;;;;;;;62.28;40.20;;;7.60;88.40;;;;;;4983830;28;20046;-72
2020/12/02 11:59:14;;;;;;;63.55;39.65;;;7.60;88.50;;;;;;4984812;28;20026;-72
2020/12/02 12:01:55;;;;;;;65.95;39.60;;;7.60;88.20;;;;;;4993869;28;20562;-71
2020/12/02 12:04:48;;;;;;;67.57;41.30;;;7.70;88.40;;;;;;4975039;28;20051;-76
2020/12/02 12:07:41;;;;;;;61.70;40.38;;;7.60;88.10;;;;;;4979254;28;20121;-79
2020/12/02 12:10:18;;;;;;;64.97;40.90;;;7.70;88.40;;;;;;4981614;28;20046;-71
2020/12/02 12:13:06;;;;;;;67.38;42.03;;;7.70;88.10;;;;;;4991323;28;20501;-74
2020/12/02 12:15:41;;;;;;;66.50;41.97;;;7.70;88.10;;;;;;5018887;28;20034;-72
2020/12/02 12:18:31;;;;;;;67.13;40.05;;;7.70;87.90;;;;;;5027531;28;20037;-72
2020/12/02 12:21:01;;;;;;;66.95;40.97;;;7.70;87.90;;;;;;4996265;28;20405;-71
2020/12/02 12:23:54;;;;;;;62.88;40.75;;;7.80;87.90;;;;;;5023870;28;20148;-72
2020/12/02 12:26:20;;;;;;;67.35;39.55;;;7.80;87.90;;;;;;5034454;28;20461;-72
2020/12/02 12:28:46;;;;;;;65.68;41.63;;;7.90;87.80;;;;;;5058814;28;20034;-74
2020/12/02 12:31:23;;;;;;;67.60;40.83;;;7.90;87.50;;;;;;5020940;28;20409;-72
2020/12/02 12:34:02;;;;;;;66.97;41.42;;;7.90;87.70;;;;;;5008236;28;20064;-74
2020/12/02 12:36:29;;;;;;;66.32;41.95;;;7.90;87.70;;;;;;5059649;28;20042;-72
2020/12/02 12:39:14;;;;;;;64.03;41.65;;;7.80;87.80;;;;;;5024784;28;20063;-72
2020/12/02 12:41:50;;;;;;;65.20;41.00;;;7.80;87.80;;;;;;4989033;28;20065;-73
2020/12/02 12:44:34;;;;;;;61.63;40.88;;;7.80;87.40;;;;;;5006912;28;20041;-72
2020/12/02 12:47:21;;;;;;;66.70;42.97;;;7.80;87.60;;;;;;4982886;28;20039;-72
2020/12/02 12:49:48;;;;;;;68.05;42.72;;;7.80;87.60;;;;;;4989123;28;20129;-72
2020/12/02 12:52:16;;;;;;;62.17;41.28;;;7.80;87.90;;;;;;4985560;28;20039;-72
2020/12/02 12:54:42;;;;;;;60.67;40.92;;;7.80;87.80;;;;;;4994071;28;20035;-72
2020/12/02 12:57:16;;;;;;;61.05;40.80;;;7.90;87.80;;;;;;5001732;28;20429;-72
2020/12/02 12:59:42;;;;;;;58.97;39.35;;;7.90;87.80;;;;;;4994613;28;20069;-71
2020/12/02 13:02:18;;;;;;;57.72;38.53;;;8.10;87.50;;;;;;5021256;28;20494;-71
2020/12/02 13:04:44;;;;;;;56.85;38.95;;;8.10;87.00;;;;;;4975091;28;20026;-73
2020/12/02 13:07:21;;;;;;;54.20;37.13;;;8.10;86.40;;;;;;4971521;28;20448;-72
2020/12/02 13:11:05;;;;;;;59.45;40.75;;;8.10;86.40;;;;;;4976896;28;20035;-74